sensor_id;sensor_type;location;lat;lon;timestamp;P1;durP1;ratioP1;P2;durP2;ratioP2
6426;SDS011;3246;42.664;23.308;2023-07-29T00:01:44;3.47;;;2.28;;
6426;SDS011;3246;42.664;23.308;2023-07-29T00:04:11;2.85;;;2.65;;
6426;SDS011;3246;42.664;23.308;2023-07-29T00:06:38;2.90;;;2.70;;
6426;SDS011;3246;42.664;23.308;2023-07-29T00:09:05;2.45;;;2.30;;
6426;SDS011;3246;42.664;23.308;2023-07-29T00:11:31;3.30;;;3.10;;
6426;SDS011;3246;42.664;23.308;2023-07-29T00:14:00;2.63;;;2.42;;
6426;SDS011;3246;42.664;23.308;2023-07-29T00:16:27;3.50;;;3.20;;
6426;SDS011;3246;42.664;23.308;2023-07-29T00:18:54;3.22;;;2.92;;
6426;SDS011;3246;42.664;23.308;2023-07-29T00:21:21;3.90;;;3.10;;
6426;SDS011;3246;42.664;23.308;2023-07-29T00:23:48;3.47;;;3.17;;
6426;SDS011;3246;42.664;23.308;2023-07-29T00:26:15;8.15;;;3.63;;
6426;SDS011;3246;42.664;23.308;2023-07-29T00:28:41;5.70;;;3.13;;
6426;SDS011;3246;42.664;23.308;2023-07-29T00:31:09;3.22;;;3.03;;
6426;SDS011;3246;42.664;23.308;2023-07-29T00:33:36;3.33;;;2.58;;
6426;SDS011;3246;42.664;23.308;2023-07-29T00:36:03;3.58;;;2.65;;
6426;SDS011;3246;42.664;23.308;2023-07-29T00:38:30;3.47;;;3.17;;
6426;SDS011;3246;42.664;23.308;2023-07-29T00:40:56;2.60;;;2.40;;
6426;SDS011;3246;42.664;23.308;2023-07-29T00:43:24;3.85;;;3.45;;
6426;SDS011;3246;42.664;23.308;2023-07-29T00:45:51;3.97;;;2.58;;
6426;SDS011;3246;42.664;23.308;2023-07-29T00:48:19;2.95;;;2.70;;
6426;SDS011;3246;42.664;23.308;2023-07-29T00:50:47;2.72;;;2.55;;
6426;SDS011;3246;42.664;23.308;2023-07-29T00:53:13;5.65;;;3.63;;
6426;SDS011;3246;42.664;23.308;2023-07-29T00:55:40;3.47;;;3.00;;
6426;SDS011;3246;42.664;23.308;2023-07-29T00:58:08;2.72;;;2.50;;
6426;SDS011;3246;42.664;23.308;2023-07-29T01:00:34;3.03;;;2.83;;
6426;SDS011;3246;42.664;23.308;2023-07-29T01:03:02;5.38;;;2.60;;
6426;SDS011;3246;42.664;23.308;2023-07-29T01:05:32;3.05;;;2.85;;
6426;SDS011;3246;42.664;23.308;2023-07-29T01:08:05;2.80;;;2.60;;
6426;SDS011;3246;42.664;23.308;2023-07-29T01:10:44;4.45;;;3.67;;
6426;SDS011;3246;42.664;23.308;2023-07-29T01:13:20;3.30;;;3.00;;
6426;SDS011;3246;42.664;23.308;2023-07-29T01:15:54;2.95;;;2.70;;
6426;SDS011;3246;42.664;23.308;2023-07-29T01:18:26;3.30;;;2.92;;
6426;SDS011;3246;42.664;23.308;2023-07-29T01:20:58;2.90;;;2.70;;
6426;SDS011;3246;42.664;23.308;2023-07-29T01:23:30;5.25;;;3.28;;
6426;SDS011;3246;42.664;23.308;2023-07-29T01:25:57;2.88;;;2.67;;
6426;SDS011;3246;42.664;23.308;2023-07-29T01:28:24;6.55;;;2.83;;
6426;SDS011;3246;42.664;23.308;2023-07-29T01:30:52;3.50;;;3.17;;
6426;SDS011;3246;42.664;23.308;2023-07-29T01:33:26;3.20;;;2.88;;
6426;SDS011;3246;42.664;23.308;2023-07-29T01:35:57;3.50;;;3.20;;
6426;SDS011;3246;42.664;23.308;2023-07-29T01:38:29;4.13;;;2.85;;
6426;SDS011;3246;42.664;23.308;2023-07-29T01:41:00;4.07;;;2.95;;
6426;SDS011;3246;42.664;23.308;2023-07-29T01:43:27;4.05;;;2.95;;
6426;SDS011;3246;42.664;23.308;2023-07-29T01:45:54;5.10;;;3.50;;
6426;SDS011;3246;42.664;23.308;2023-07-29T01:48:21;3.08;;;2.88;;
6426;SDS011;3246;42.664;23.308;2023-07-29T01:50:48;3.25;;;3.03;;
6426;SDS011;3246;42.664;23.308;2023-07-29T01:53:15;2.88;;;2.67;;
6426;SDS011;3246;42.664;23.308;2023-07-29T01:55:43;2.90;;;2.70;;
6426;SDS011;3246;42.664;23.308;2023-07-29T01:58:10;3.00;;;2.80;;
6426;SDS011;3246;42.664;23.308;2023-07-29T02:00:38;3.58;;;3.03;;
6426;SDS011;3246;42.664;23.308;2023-07-29T02:03:05;7.55;;;2.70;;
6426;SDS011;3246;42.664;23.308;2023-07-29T02:05:31;2.92;;;2.72;;
6426;SDS011;3246;42.664;23.308;2023-07-29T02:07:58;3.90;;;2.95;;
6426;SDS011;3246;42.664;23.308;2023-07-29T02:10:25;3.70;;;3.40;;
6426;SDS011;3246;42.664;23.308;2023-07-29T02:12:53;6.05;;;2.90;;
6426;SDS011;3246;42.664;23.308;2023-07-29T02:15:20;3.70;;;3.47;;
6426;SDS011;3246;42.664;23.308;2023-07-29T02:17:47;5.47;;;3.22;;
6426;SDS011;3246;42.664;23.308;2023-07-29T02:20:13;3.88;;;3.47;;
6426;SDS011;3246;42.664;23.308;2023-07-29T02:22:40;4.03;;;3.10;;
6426;SDS011;3246;42.664;23.308;2023-07-29T02:25:07;3.95;;;3.63;;
6426;SDS011;3246;42.664;23.308;2023-07-29T02:27:35;3.67;;;3.35;;
6426;SDS011;3246;42.664;23.308;2023-07-29T02:30:03;3.13;;;2.90;;
6426;SDS011;3246;42.664;23.308;2023-07-29T02:32:30;5.68;;;3.45;;
6426;SDS011;3246;42.664;23.308;2023-07-29T02:34:57;3.03;;;2.67;;
6426;SDS011;3246;42.664;23.308;2023-07-29T02:37:24;5.38;;;2.95;;
6426;SDS011;3246;42.664;23.308;2023-07-29T02:39:51;3.50;;;2.97;;
6426;SDS011;3246;42.664;23.308;2023-07-29T02:42:17;3.53;;;3.22;;
6426;SDS011;3246;42.664;23.308;2023-07-29T02:44:44;3.05;;;2.85;;
6426;SDS011;3246;42.664;23.308;2023-07-29T02:47:12;3.50;;;3.20;;
6426;SDS011;3246;42.664;23.308;2023-07-29T02:49:39;4.63;;;3.63;;
6426;SDS011;3246;42.664;23.308;2023-07-29T02:52:06;3.38;;;3.17;;
6426;SDS011;3246;42.664;23.308;2023-07-29T02:54:33;4.18;;;3.55;;
6426;SDS011;3246;42.664;23.308;2023-07-29T02:56:59;3.97;;;3.58;;
6426;SDS011;3246;42.664;23.308;2023-07-29T02:59:26;5.25;;;3.88;;
6426;SDS011;3246;42.664;23.308;2023-07-29T03:01:53;4.07;;;3.78;;
6426;SDS011;3246;42.664;23.308;2023-07-29T03:04:21;6.20;;;3.88;;
6426;SDS011;3246;42.664;23.308;2023-07-29T03:06:48;3.88;;;3.58;;
6426;SDS011;3246;42.664;23.308;2023-07-29T03:09:15;3.35;;;3.15;;
6426;SDS011;3246;42.664;23.308;2023-07-29T03:11:42;3.35;;;3.15;;
6426;SDS011;3246;42.664;23.308;2023-07-29T03:14:08;3.38;;;3.17;;
6426;SDS011;3246;42.664;23.308;2023-07-29T03:16:35;3.28;;;3.08;;
6426;SDS011;3246;42.664;23.308;2023-07-29T03:19:02;5.07;;;3.22;;
6426;SDS011;3246;42.664;23.308;2023-07-29T03:21:30;3.67;;;3.38;;
6426;SDS011;3246;42.664;23.308;2023-07-29T03:23:57;3.53;;;3.25;;
6426;SDS011;3246;42.664;23.308;2023-07-29T03:26:23;3.88;;;3.58;;
6426;SDS011;3246;42.664;23.308;2023-07-29T03:28:50;2.78;;;2.58;;
6426;SDS011;3246;42.664;23.308;2023-07-29T03:31:17;3.47;;;3.17;;
6426;SDS011;3246;42.664;23.308;2023-07-29T03:33:44;3.95;;;3.47;;
6426;SDS011;3246;42.664;23.308;2023-07-29T03:36:10;3.60;;;3.30;;
6426;SDS011;3246;42.664;23.308;2023-07-29T03:38:39;4.45;;;3.42;;
6426;SDS011;3246;42.664;23.308;2023-07-29T03:41:06;4.30;;;3.20;;
6426;SDS011;3246;42.664;23.308;2023-07-29T03:43:33;4.15;;;3.55;;
6426;SDS011;3246;42.664;23.308;2023-07-29T03:46:00;4.25;;;3.70;;
6426;SDS011;3246;42.664;23.308;2023-07-29T03:48:27;3.60;;;3.28;;
6426;SDS011;3246;42.664;23.308;2023-07-29T03:50:54;3.53;;;2.97;;
6426;SDS011;3246;42.664;23.308;2023-07-29T03:53:21;4.85;;;3.83;;
6426;SDS011;3246;42.664;23.308;2023-07-29T03:55:49;4.55;;;4.15;;
6426;SDS011;3246;42.664;23.308;2023-07-29T03:58:16;4.22;;;3.83;;
6426;SDS011;3246;42.664;23.308;2023-07-29T04:00:43;4.00;;;3.70;;
6426;SDS011;3246;42.664;23.308;2023-07-29T04:03:09;4.35;;;3.55;;
6426;SDS011;3246;42.664;23.308;2023-07-29T04:05:36;3.15;;;2.95;;
6426;SDS011;3246;42.664;23.308;2023-07-29T04:08:03;5.13;;;4.07;;
6426;SDS011;3246;42.664;23.308;2023-07-29T04:10:30;3.67;;;3.38;;
6426;SDS011;3246;42.664;23.308;2023-07-29T04:12:58;5.65;;;3.70;;
6426;SDS011;3246;42.664;23.308;2023-07-29T04:15:25;4.57;;;3.97;;
6426;SDS011;3246;42.664;23.308;2023-07-29T04:17:52;3.75;;;3.42;;
6426;SDS011;3246;42.664;23.308;2023-07-29T04:20:18;4.18;;;3.78;;
6426;SDS011;3246;42.664;23.308;2023-07-29T04:22:45;5.05;;;4.10;;
6426;SDS011;3246;42.664;23.308;2023-07-29T04:25:12;3.92;;;3.53;;
6426;SDS011;3246;42.664;23.308;2023-07-29T04:27:39;3.75;;;3.50;;
6426;SDS011;3246;42.664;23.308;2023-07-29T04:30:07;4.38;;;4.00;;
6426;SDS011;3246;42.664;23.308;2023-07-29T04:32:35;6.97;;;4.63;;
6426;SDS011;3246;42.664;23.308;2023-07-29T04:35:01;10.07;;;8.85;;
6426;SDS011;3246;42.664;23.308;2023-07-29T04:37:28;6.22;;;5.65;;
6426;SDS011;3246;42.664;23.308;2023-07-29T04:39:55;5.25;;;4.60;;
6426;SDS011;3246;42.664;23.308;2023-07-29T04:42:22;9.13;;;8.13;;
6426;SDS011;3246;42.664;23.308;2023-07-29T04:44:49;4.93;;;4.28;;
6426;SDS011;3246;42.664;23.308;2023-07-29T04:47:17;7.72;;;4.38;;
6426;SDS011;3246;42.664;23.308;2023-07-29T04:49:43;6.18;;;5.57;;
6426;SDS011;3246;42.664;23.308;2023-07-29T04:52:10;8.32;;;5.10;;
6426;SDS011;3246;42.664;23.308;2023-07-29T04:54:37;4.20;;;3.83;;
6426;SDS011;3246;42.664;23.308;2023-07-29T04:57:04;5.70;;;5.10;;
6426;SDS011;3246;42.664;23.308;2023-07-29T04:59:31;7.18;;;4.90;;
6426;SDS011;3246;42.664;23.308;2023-07-29T05:01:58;6.53;;;5.00;;
6426;SDS011;3246;42.664;23.308;2023-07-29T05:04:26;6.22;;;4.55;;
6426;SDS011;3246;42.664;23.308;2023-07-29T05:06:53;6.75;;;4.95;;
6426;SDS011;3246;42.664;23.308;2023-07-29T05:09:20;6.22;;;4.60;;
6426;SDS011;3246;42.664;23.308;2023-07-29T05:11:47;6.75;;;4.97;;
6426;SDS011;3246;42.664;23.308;2023-07-29T05:14:14;6.53;;;5.20;;
6426;SDS011;3246;42.664;23.308;2023-07-29T05:16:41;6.32;;;5.70;;
6426;SDS011;3246;42.664;23.308;2023-07-29T05:19:08;7.13;;;5.68;;
6426;SDS011;3246;42.664;23.308;2023-07-29T05:21:37;5.88;;;5.38;;
6426;SDS011;3246;42.664;23.308;2023-07-29T05:24:04;8.80;;;7.97;;
6426;SDS011;3246;42.664;23.308;2023-07-29T05:26:31;7.32;;;5.78;;
6426;SDS011;3246;42.664;23.308;2023-07-29T05:28:58;6.95;;;6.35;;
6426;SDS011;3246;42.664;23.308;2023-07-29T05:31:25;7.22;;;6.53;;
6426;SDS011;3246;42.664;23.308;2023-07-29T05:33:52;8.18;;;7.38;;
6426;SDS011;3246;42.664;23.308;2023-07-29T05:36:19;8.40;;;7.60;;
6426;SDS011;3246;42.664;23.308;2023-07-29T05:38:47;9.43;;;7.28;;
6426;SDS011;3246;42.664;23.308;2023-07-29T05:41:13;6.55;;;6.10;;
6426;SDS011;3246;42.664;23.308;2023-07-29T05:43:40;6.88;;;6.05;;
6426;SDS011;3246;42.664;23.308;2023-07-29T05:46:08;8.18;;;6.10;;
6426;SDS011;3246;42.664;23.308;2023-07-29T05:48:35;7.20;;;6.35;;
6426;SDS011;3246;42.664;23.308;2023-07-29T05:51:02;5.78;;;5.28;;
6426;SDS011;3246;42.664;23.308;2023-07-29T05:53:30;7.28;;;5.55;;
6426;SDS011;3246;42.664;23.308;2023-07-29T05:55:58;8.50;;;4.28;;
6426;SDS011;3246;42.664;23.308;2023-07-29T05:58:25;5.20;;;4.50;;
6426;SDS011;3246;42.664;23.308;2023-07-29T06:00:52;6.38;;;5.15;;
6426;SDS011;3246;42.664;23.308;2023-07-29T06:03:18;8.55;;;4.40;;
6426;SDS011;3246;42.664;23.308;2023-07-29T06:05:45;5.68;;;5.18;;
6426;SDS011;3246;42.664;23.308;2023-07-29T06:08:12;8.13;;;5.03;;
6426;SDS011;3246;42.664;23.308;2023-07-29T06:10:39;5.85;;;4.80;;
6426;SDS011;3246;42.664;23.308;2023-07-29T06:13:07;4.18;;;3.75;;
6426;SDS011;3246;42.664;23.308;2023-07-29T06:15:33;5.60;;;5.13;;
6426;SDS011;3246;42.664;23.308;2023-07-29T06:18:00;6.57;;;5.20;;
6426;SDS011;3246;42.664;23.308;2023-07-29T06:20:27;5.03;;;4.38;;
6426;SDS011;3246;42.664;23.308;2023-07-29T06:22:54;7.03;;;4.80;;
6426;SDS011;3246;42.664;23.308;2023-07-29T06:25:21;8.95;;;4.85;;
6426;SDS011;3246;42.664;23.308;2023-07-29T06:27:48;4.82;;;4.50;;
6426;SDS011;3246;42.664;23.308;2023-07-29T06:30:16;5.78;;;5.18;;
6426;SDS011;3246;42.664;23.308;2023-07-29T06:32:43;5.93;;;5.03;;
6426;SDS011;3246;42.664;23.308;2023-07-29T06:35:09;4.50;;;4.10;;
6426;SDS011;3246;42.664;23.308;2023-07-29T06:37:36;5.70;;;4.97;;
6426;SDS011;3246;42.664;23.308;2023-07-29T06:40:03;5.15;;;4.65;;
6426;SDS011;3246;42.664;23.308;2023-07-29T06:42:31;5.53;;;5.03;;
6426;SDS011;3246;42.664;23.308;2023-07-29T06:44:58;4.90;;;4.50;;
6426;SDS011;3246;42.664;23.308;2023-07-29T06:47:26;4.55;;;4.15;;
6426;SDS011;3246;42.664;23.308;2023-07-29T06:49:53;4.40;;;4.00;;
6426;SDS011;3246;42.664;23.308;2023-07-29T06:52:20;4.80;;;3.95;;
6426;SDS011;3246;42.664;23.308;2023-07-29T06:54:47;4.93;;;3.60;;
6426;SDS011;3246;42.664;23.308;2023-07-29T06:57:13;6.13;;;4.82;;
6426;SDS011;3246;42.664;23.308;2023-07-29T06:59:40;3.97;;;3.67;;
6426;SDS011;3246;42.664;23.308;2023-07-29T07:02:07;3.90;;;3.60;;
6426;SDS011;3246;42.664;23.308;2023-07-29T07:04:35;4.70;;;4.20;;
6426;SDS011;3246;42.664;23.308;2023-07-29T07:07:02;6.00;;;4.70;;
6426;SDS011;3246;42.664;23.308;2023-07-29T07:09:29;5.95;;;4.30;;
6426;SDS011;3246;42.664;23.308;2023-07-29T07:11:56;7.25;;;4.68;;
6426;SDS011;3246;42.664;23.308;2023-07-29T07:14:22;5.05;;;4.53;;
6426;SDS011;3246;42.664;23.308;2023-07-29T07:16:49;4.30;;;3.90;;
6426;SDS011;3246;42.664;23.308;2023-07-29T07:19:16;4.38;;;3.97;;
6426;SDS011;3246;42.664;23.308;2023-07-29T07:21:44;4.75;;;4.20;;
6426;SDS011;3246;42.664;23.308;2023-07-29T07:24:11;4.88;;;4.10;;
6426;SDS011;3246;42.664;23.308;2023-07-29T07:26:37;4.53;;;4.22;;
6426;SDS011;3246;42.664;23.308;2023-07-29T07:29:05;5.10;;;4.60;;
6426;SDS011;3246;42.664;23.308;2023-07-29T07:31:32;5.22;;;4.68;;
6426;SDS011;3246;42.664;23.308;2023-07-29T07:34:00;5.25;;;4.85;;
6426;SDS011;3246;42.664;23.308;2023-07-29T07:36:28;10.20;;;4.32;;
6426;SDS011;3246;42.664;23.308;2023-07-29T07:38:57;9.48;;;7.05;;
6426;SDS011;3246;42.664;23.308;2023-07-29T07:41:23;5.78;;;4.68;;
6426;SDS011;3246;42.664;23.308;2023-07-29T07:43:50;5.35;;;4.85;;
6426;SDS011;3246;42.664;23.308;2023-07-29T07:46:17;4.88;;;4.05;;
6426;SDS011;3246;42.664;23.308;2023-07-29T07:48:44;8.48;;;4.75;;
6426;SDS011;3246;42.664;23.308;2023-07-29T07:51:10;6.45;;;4.75;;
6426;SDS011;3246;42.664;23.308;2023-07-29T07:53:38;5.40;;;4.57;;
6426;SDS011;3246;42.664;23.308;2023-07-29T07:56:06;8.25;;;4.97;;
6426;SDS011;3246;42.664;23.308;2023-07-29T07:58:33;11.35;;;4.35;;
6426;SDS011;3246;42.664;23.308;2023-07-29T08:01:01;11.00;;;3.80;;
6426;SDS011;3246;42.664;23.308;2023-07-29T08:03:28;4.10;;;3.65;;
6426;SDS011;3246;42.664;23.308;2023-07-29T08:05:55;7.20;;;4.28;;
6426;SDS011;3246;42.664;23.308;2023-07-29T08:08:21;6.65;;;5.20;;
6426;SDS011;3246;42.664;23.308;2023-07-29T08:10:48;5.47;;;4.13;;
6426;SDS011;3246;42.664;23.308;2023-07-29T08:13:16;4.50;;;4.20;;
6426;SDS011;3246;42.664;23.308;2023-07-29T08:15:45;5.50;;;4.72;;
6426;SDS011;3246;42.664;23.308;2023-07-29T08:18:13;5.13;;;4.63;;
6426;SDS011;3246;42.664;23.308;2023-07-29T08:20:39;7.07;;;3.67;;
6426;SDS011;3246;42.664;23.308;2023-07-29T08:23:06;4.28;;;3.45;;
6426;SDS011;3246;42.664;23.308;2023-07-29T08:25:33;4.68;;;3.90;;
6426;SDS011;3246;42.664;23.308;2023-07-29T08:28:00;6.82;;;4.25;;
6426;SDS011;3246;42.664;23.308;2023-07-29T08:30:28;11.68;;;4.10;;
6426;SDS011;3246;42.664;23.308;2023-07-29T08:32:55;4.07;;;3.67;;
6426;SDS011;3246;42.664;23.308;2023-07-29T08:35:22;5.85;;;4.18;;
6426;SDS011;3246;42.664;23.308;2023-07-29T08:37:49;5.30;;;3.65;;
6426;SDS011;3246;42.664;23.308;2023-07-29T08:40:15;5.72;;;3.55;;
6426;SDS011;3246;42.664;23.308;2023-07-29T08:42:43;3.58;;;3.35;;
6426;SDS011;3246;42.664;23.308;2023-07-29T08:45:13;5.55;;;3.38;;
6426;SDS011;3246;42.664;23.308;2023-07-29T08:47:44;4.85;;;3.25;;
6426;SDS011;3246;42.664;23.308;2023-07-29T08:50:11;3.97;;;3.67;;
6426;SDS011;3246;42.664;23.308;2023-07-29T08:52:39;4.85;;;4.45;;
6426;SDS011;3246;42.664;23.308;2023-07-29T08:55:08;3.53;;;3.25;;
6426;SDS011;3246;42.664;23.308;2023-07-29T08:57:35;3.90;;;3.58;;
6426;SDS011;3246;42.664;23.308;2023-07-29T09:00:03;6.55;;;3.22;;
6426;SDS011;3246;42.664;23.308;2023-07-29T09:02:31;7.88;;;6.35;;
6426;SDS011;3246;42.664;23.308;2023-07-29T09:04:59;6.18;;;3.50;;
6426;SDS011;3246;42.664;23.308;2023-07-29T09:07:27;5.32;;;3.47;;
6426;SDS011;3246;42.664;23.308;2023-07-29T09:09:55;7.40;;;3.95;;
6426;SDS011;3246;42.664;23.308;2023-07-29T09:12:22;7.72;;;4.05;;
6426;SDS011;3246;42.664;23.308;2023-07-29T09:14:51;3.22;;;2.25;;
6426;SDS011;3246;42.664;23.308;2023-07-29T09:17:18;5.35;;;3.72;;
6426;SDS011;3246;42.664;23.308;2023-07-29T09:19:47;7.07;;;2.95;;
6426;SDS011;3246;42.664;23.308;2023-07-29T09:22:18;4.63;;;2.35;;
6426;SDS011;3246;42.664;23.308;2023-07-29T09:24:46;2.97;;;2.67;;
6426;SDS011;3246;42.664;23.308;2023-07-29T09:27:23;4.60;;;2.85;;
6426;SDS011;3246;42.664;23.308;2023-07-29T09:29:50;5.63;;;2.85;;
6426;SDS011;3246;42.664;23.308;2023-07-29T09:32:17;3.67;;;2.80;;
6426;SDS011;3246;42.664;23.308;2023-07-29T09:34:47;4.60;;;3.08;;
6426;SDS011;3246;42.664;23.308;2023-07-29T09:37:18;7.40;;;5.53;;
6426;SDS011;3246;42.664;23.308;2023-07-29T09:39:47;4.32;;;2.30;;
6426;SDS011;3246;42.664;23.308;2023-07-29T09:42:18;19.67;;;2.42;;
6426;SDS011;3246;42.664;23.308;2023-07-29T09:44:45;4.65;;;2.25;;
6426;SDS011;3246;42.664;23.308;2023-07-29T09:47:19;3.72;;;1.73;;
6426;SDS011;3246;42.664;23.308;2023-07-29T09:49:47;3.47;;;2.13;;
6426;SDS011;3246;42.664;23.308;2023-07-29T09:52:14;3.63;;;2.10;;
6426;SDS011;3246;42.664;23.308;2023-07-29T09:54:43;2.17;;;1.98;;
6426;SDS011;3246;42.664;23.308;2023-07-29T09:57:11;4.95;;;1.80;;
6426;SDS011;3246;42.664;23.308;2023-07-29T09:59:37;2.00;;;1.90;;
6426;SDS011;3246;42.664;23.308;2023-07-29T10:02:04;2.13;;;1.75;;
6426;SDS011;3246;42.664;23.308;2023-07-29T10:04:36;3.10;;;1.88;;
6426;SDS011;3246;42.664;23.308;2023-07-29T10:07:03;1.90;;;1.20;;
6426;SDS011;3246;42.664;23.308;2023-07-29T10:09:30;2.30;;;1.50;;
6426;SDS011;3246;42.664;23.308;2023-07-29T10:11:59;2.30;;;2.13;;
6426;SDS011;3246;42.664;23.308;2023-07-29T10:14:26;2.45;;;2.00;;
6426;SDS011;3246;42.664;23.308;2023-07-29T10:16:55;1.77;;;1.67;;
6426;SDS011;3246;42.664;23.308;2023-07-29T10:19:23;4.25;;;1.65;;
6426;SDS011;3246;42.664;23.308;2023-07-29T10:21:51;2.08;;;1.80;;
6426;SDS011;3246;42.664;23.308;2023-07-29T10:24:22;5.57;;;2.75;;
6426;SDS011;3246;42.664;23.308;2023-07-29T10:26:54;3.25;;;3.03;;
6426;SDS011;3246;42.664;23.308;2023-07-29T10:29:27;4.47;;;3.97;;
6426;SDS011;3246;42.664;23.308;2023-07-29T10:31:57;1.52;;;1.42;;
6426;SDS011;3246;42.664;23.308;2023-07-29T10:34:24;3.60;;;3.08;;
6426;SDS011;3246;42.664;23.308;2023-07-29T10:36:51;2.17;;;1.98;;
6426;SDS011;3246;42.664;23.308;2023-07-29T10:39:18;1.83;;;1.73;;
6426;SDS011;3246;42.664;23.308;2023-07-29T10:41:54;4.38;;;1.50;;
6426;SDS011;3246;42.664;23.308;2023-07-29T10:47:19;1.45;;;1.35;;
6426;SDS011;3246;42.664;23.308;2023-07-29T10:49:49;2.15;;;2.05;;
6426;SDS011;3246;42.664;23.308;2023-07-29T10:52:27;4.22;;;2.42;;
6426;SDS011;3246;42.664;23.308;2023-07-29T10:54:56;6.80;;;1.67;;
6426;SDS011;3246;42.664;23.308;2023-07-29T10:57:30;3.42;;;2.95;;
6426;SDS011;3246;42.664;23.308;2023-07-29T11:00:00;3.70;;;2.30;;
6426;SDS011;3246;42.664;23.308;2023-07-29T11:02:30;1.08;;;1.08;;
6426;SDS011;3246;42.664;23.308;2023-07-29T11:04:58;1.52;;;1.40;;
6426;SDS011;3246;42.664;23.308;2023-07-29T11:07:30;1.60;;;1.25;;
6426;SDS011;3246;42.664;23.308;2023-07-29T11:09:58;3.30;;;1.33;;
6426;SDS011;3246;42.664;23.308;2023-07-29T11:12:42;1.90;;;1.80;;
6426;SDS011;3246;42.664;23.308;2023-07-29T11:15:14;2.88;;;1.52;;
6426;SDS011;3246;42.664;23.308;2023-07-29T11:17:43;1.05;;;0.88;;
6426;SDS011;3246;42.664;23.308;2023-07-29T11:20:11;1.48;;;1.38;;
6426;SDS011;3246;42.664;23.308;2023-07-29T11:22:38;2.13;;;1.98;;
6426;SDS011;3246;42.664;23.308;2023-07-29T11:25:07;1.65;;;1.55;;
6426;SDS011;3246;42.664;23.308;2023-07-29T11:27:35;3.17;;;2.10;;
6426;SDS011;3246;42.664;23.308;2023-07-29T11:30:02;7.63;;;1.60;;
6426;SDS011;3246;42.664;23.308;2023-07-29T11:32:32;1.48;;;1.38;;
6426;SDS011;3246;42.664;23.308;2023-07-29T11:35:03;1.88;;;1.73;;
6426;SDS011;3246;42.664;23.308;2023-07-29T11:37:32;2.08;;;1.73;;
6426;SDS011;3246;42.664;23.308;2023-07-29T11:39:59;1.88;;;1.75;;
6426;SDS011;3246;42.664;23.308;2023-07-29T11:42:27;2.10;;;1.50;;
6426;SDS011;3246;42.664;23.308;2023-07-29T11:44:56;2.00;;;1.30;;
6426;SDS011;3246;42.664;23.308;2023-07-29T11:47:23;1.38;;;0.95;;
6426;SDS011;3246;42.664;23.308;2023-07-29T11:49:52;1.25;;;1.15;;
6426;SDS011;3246;42.664;23.308;2023-07-29T11:52:19;0.98;;;0.98;;
6426;SDS011;3246;42.664;23.308;2023-07-29T11:54:47;1.65;;;1.55;;
6426;SDS011;3246;42.664;23.308;2023-07-29T11:57:15;1.58;;;1.35;;
6426;SDS011;3246;42.664;23.308;2023-07-29T11:59:43;1.30;;;1.30;;
6426;SDS011;3246;42.664;23.308;2023-07-29T12:02:11;1.50;;;1.35;;
6426;SDS011;3246;42.664;23.308;2023-07-29T12:04:38;2.40;;;1.63;;
6426;SDS011;3246;42.664;23.308;2023-07-29T12:07:07;1.23;;;1.15;;
6426;SDS011;3246;42.664;23.308;2023-07-29T12:09:34;0.90;;;0.90;;
6426;SDS011;3246;42.664;23.308;2023-07-29T12:12:02;1.00;;;1.00;;
6426;SDS011;3246;42.664;23.308;2023-07-29T12:14:30;1.48;;;1.38;;
6426;SDS011;3246;42.664;23.308;2023-07-29T12:16:59;1.30;;;1.20;;
6426;SDS011;3246;42.664;23.308;2023-07-29T12:19:30;1.25;;;1.15;;
6426;SDS011;3246;42.664;23.308;2023-07-29T12:21:58;1.52;;;1.42;;
6426;SDS011;3246;42.664;23.308;2023-07-29T12:24:26;1.27;;;1.17;;
6426;SDS011;3246;42.664;23.308;2023-07-29T12:26:55;1.50;;;1.40;;
6426;SDS011;3246;42.664;23.308;2023-07-29T12:29:22;2.50;;;1.50;;
6426;SDS011;3246;42.664;23.308;2023-07-29T12:31:49;1.50;;;1.40;;
6426;SDS011;3246;42.664;23.308;2023-07-29T12:34:24;5.07;;;4.60;;
6426;SDS011;3246;42.664;23.308;2023-07-29T12:36:52;2.00;;;1.90;;
6426;SDS011;3246;42.664;23.308;2023-07-29T12:39:20;1.38;;;1.30;;
6426;SDS011;3246;42.664;23.308;2023-07-29T12:41:50;1.52;;;1.42;;
6426;SDS011;3246;42.664;23.308;2023-07-29T12:44:18;3.63;;;2.08;;
6426;SDS011;3246;42.664;23.308;2023-07-29T12:46:45;1.83;;;1.73;;
6426;SDS011;3246;42.664;23.308;2023-07-29T12:49:12;6.10;;;5.13;;
6426;SDS011;3246;42.664;23.308;2023-07-29T12:51:38;2.10;;;2.00;;
6426;SDS011;3246;42.664;23.308;2023-07-29T12:54:05;4.00;;;1.63;;
6426;SDS011;3246;42.664;23.308;2023-07-29T12:56:32;2.70;;;1.83;;
6426;SDS011;3246;42.664;23.308;2023-07-29T12:59:01;3.13;;;2.92;;
6426;SDS011;3246;42.664;23.308;2023-07-29T13:01:28;1.50;;;1.38;;
6426;SDS011;3246;42.664;23.308;2023-07-29T13:03:55;2.72;;;1.08;;
6426;SDS011;3246;42.664;23.308;2023-07-29T13:06:22;2.00;;;1.30;;
6426;SDS011;3246;42.664;23.308;2023-07-29T13:08:49;2.95;;;1.38;;
6426;SDS011;3246;42.664;23.308;2023-07-29T13:11:16;1.63;;;1.52;;
6426;SDS011;3246;42.664;23.308;2023-07-29T13:13:43;1.52;;;1.40;;
6426;SDS011;3246;42.664;23.308;2023-07-29T13:16:12;1.00;;;1.00;;
6426;SDS011;3246;42.664;23.308;2023-07-29T13:18:39;1.50;;;1.40;;
6426;SDS011;3246;42.664;23.308;2023-07-29T13:21:05;1.50;;;1.40;;
6426;SDS011;3246;42.664;23.308;2023-07-29T13:23:32;1.30;;;1.13;;
6426;SDS011;3246;42.664;23.308;2023-07-29T13:25:59;1.70;;;1.60;;
6426;SDS011;3246;42.664;23.308;2023-07-29T13:28:26;1.38;;;1.27;;
6426;SDS011;3246;42.664;23.308;2023-07-29T13:30:53;2.53;;;1.52;;
6426;SDS011;3246;42.664;23.308;2023-07-29T13:33:21;1.30;;;1.30;;
6426;SDS011;3246;42.664;23.308;2023-07-29T13:35:48;1.40;;;1.30;;
6426;SDS011;3246;42.664;23.308;2023-07-29T13:38:15;2.60;;;1.73;;
6426;SDS011;3246;42.664;23.308;2023-07-29T13:40:42;4.00;;;2.10;;
6426;SDS011;3246;42.664;23.308;2023-07-29T13:43:09;4.55;;;4.15;;
6426;SDS011;3246;42.664;23.308;2023-07-29T13:45:35;4.30;;;3.35;;
6426;SDS011;3246;42.664;23.308;2023-07-29T13:48:02;2.75;;;2.45;;
6426;SDS011;3246;42.664;23.308;2023-07-29T13:50:31;2.72;;;2.50;;
6426;SDS011;3246;42.664;23.308;2023-07-29T13:52:58;2.45;;;2.25;;
6426;SDS011;3246;42.664;23.308;2023-07-29T13:55:24;4.38;;;2.10;;
6426;SDS011;3246;42.664;23.308;2023-07-29T13:57:52;3.65;;;1.88;;
6426;SDS011;3246;42.664;23.308;2023-07-29T14:00:20;1.70;;;1.60;;
6426;SDS011;3246;42.664;23.308;2023-07-29T14:02:46;1.67;;;1.58;;
6426;SDS011;3246;42.664;23.308;2023-07-29T14:05:13;3.30;;;3.10;;
6426;SDS011;3246;42.664;23.308;2023-07-29T14:07:41;2.20;;;1.48;;
6426;SDS011;3246;42.664;23.308;2023-07-29T14:10:08;2.50;;;1.65;;
6426;SDS011;3246;42.664;23.308;2023-07-29T14:12:35;1.73;;;1.63;;
6426;SDS011;3246;42.664;23.308;2023-07-29T14:15:03;2.33;;;2.13;;
6426;SDS011;3246;42.664;23.308;2023-07-29T14:17:31;2.13;;;1.77;;
6426;SDS011;3246;42.664;23.308;2023-07-29T14:19:57;8.98;;;1.67;;
6426;SDS011;3246;42.664;23.308;2023-07-29T14:22:24;1.65;;;1.55;;
6426;SDS011;3246;42.664;23.308;2023-07-29T14:24:52;1.02;;;1.02;;
6426;SDS011;3246;42.664;23.308;2023-07-29T14:27:19;2.50;;;2.20;;
6426;SDS011;3246;42.664;23.308;2023-07-29T14:29:46;1.80;;;1.55;;
6426;SDS011;3246;42.664;23.308;2023-07-29T14:32:13;2.33;;;1.80;;
6426;SDS011;3246;42.664;23.308;2023-07-29T14:34:39;1.30;;;1.20;;
6426;SDS011;3246;42.664;23.308;2023-07-29T14:37:06;1.73;;;1.50;;
6426;SDS011;3246;42.664;23.308;2023-07-29T14:39:33;2.10;;;1.30;;
6426;SDS011;3246;42.664;23.308;2023-07-29T14:42:01;1.83;;;1.67;;
6426;SDS011;3246;42.664;23.308;2023-07-29T14:44:28;1.40;;;1.30;;
6426;SDS011;3246;42.664;23.308;2023-07-29T14:46:55;2.45;;;1.45;;
6426;SDS011;3246;42.664;23.308;2023-07-29T14:49:22;2.42;;;1.55;;
6426;SDS011;3246;42.664;23.308;2023-07-29T14:51:48;1.50;;;1.40;;
6426;SDS011;3246;42.664;23.308;2023-07-29T14:54:15;1.60;;;1.50;;
6426;SDS011;3246;42.664;23.308;2023-07-29T14:56:42;1.90;;;1.80;;
6426;SDS011;3246;42.664;23.308;2023-07-29T14:59:10;2.83;;;1.88;;
6426;SDS011;3246;42.664;23.308;2023-07-29T15:01:37;2.15;;;1.80;;
6426;SDS011;3246;42.664;23.308;2023-07-29T15:04:04;1.75;;;1.65;;
6426;SDS011;3246;42.664;23.308;2023-07-29T15:06:31;1.40;;;1.30;;